createdAt,value
2023-02-14T00:03:36.680Z,31.02786
2023-02-14T00:08:37.609Z,31.06188
2023-02-14T00:13:38.487Z,30.97845
2023-02-14T00:18:39.388Z,31.01367
2023-02-14T00:23:40.374Z,30.96791
2023-02-14T00:28:41.341Z,30.90315
2023-02-14T00:33:42.591Z,30.86214
2023-02-14T00:38:43.558Z,30.82688
2023-02-14T00:43:45.477Z,30.93811
2023-02-14T00:48:46.414Z,30.77513
2023-02-14T00:53:47.353Z,30.82363
2023-02-14T00:58:48.272Z,30.81235
2023-02-14T01:03:49.424Z,30.78889
2023-02-14T01:08:50.381Z,30.87723
2023-02-14T01:13:51.348Z,30.95975
2023-02-14T01:18:52.357Z,30.91811
2023-02-14T01:23:53.353Z,30.96996
2023-02-14T01:28:54.266Z,30.86459
2023-02-14T01:33:55.209Z,30.96653
2023-02-14T01:38:56.149Z,30.8898
2023-02-14T01:43:57.081Z,30.88254
2023-02-14T01:48:58.163Z,30.79568
2023-02-14T01:53:59.212Z,30.83718
2023-02-14T01:59:00.217Z,30.86606
2023-02-14T02:04:01.217Z,30.97667
2023-02-14T02:09:02.373Z,30.97681
2023-02-14T02:14:03.289Z,30.97699
2023-02-14T02:19:04.213Z,31.02362
2023-02-14T02:24:05.140Z,31.03534
2023-02-14T02:29:06.074Z,30.977
2023-02-14T02:34:07.073Z,30.89525
2023-02-14T02:39:08.082Z,30.86882
2023-02-14T02:44:09.013Z,31.19805
2023-02-14T02:49:09.948Z,31.2834
2023-02-14T02:54:10.959Z,31.29978
2023-02-14T02:59:11.893Z,31.29419
2023-02-14T03:04:12.849Z,31.29445
2023-02-14T03:09:13.783Z,31.45225
2023-02-14T03:14:14.698Z,31.56899
2023-02-14T03:19:15.651Z,31.60377
2023-02-14T03:24:16.595Z,31.78786
2023-02-14T03:29:17.531Z,31.73499
2023-02-14T03:34:18.473Z,31.76294
2023-02-14T03:39:19.511Z,31.83368
2023-02-14T03:44:20.424Z,31.91018
2023-02-14T03:49:21.826Z,31.89363
2023-02-14T03:54:22.787Z,31.77103
2023-02-14T03:59:23.723Z,31.74336
2023-02-14T04:04:24.890Z,31.77265
2023-02-14T04:09:25.937Z,31.83514
2023-02-14T04:14:26.847Z,31.94586
2023-02-14T04:19:27.773Z,31.90975
2023-02-14T04:24:28.705Z,31.93535
2023-02-14T04:29:29.623Z,31.99226
2023-02-14T04:34:30.506Z,31.93298
2023-02-14T04:39:31.679Z,31.91504
2023-02-14T04:44:32.848Z,31.72817
2023-02-14T04:49:33.773Z,31.72836
2023-02-14T04:54:34.681Z,31.78085
2023-02-14T04:59:35.638Z,31.82733
2023-02-14T05:04:36.548Z,31.70597
2023-02-14T05:09:37.744Z,31.76524
2023-02-14T05:14:38.678Z,32.00872
2023-02-14T05:19:39.591Z,31.96455
2023-02-14T05:24:40.486Z,31.85771
2023-02-14T05:29:41.508Z,31.79232
2023-02-14T05:34:42.423Z,31.75679
2023-02-14T05:39:43.329Z,31.78196
2023-02-14T05:44:44.225Z,31.93939
2023-02-14T05:49:45.154Z,32.11339
2023-02-14T05:54:46.032Z,32.0428
2023-02-14T05:59:46.938Z,32.07291
2023-02-14T06:04:47.927Z,32.11336
2023-02-14T06:09:48.898Z,31.973
2023-02-14T06:14:49.795Z,31.96718
2023-02-14T06:19:50.717Z,31.9386
2023-02-14T06:24:51.650Z,32.05007
2023-02-14T06:29:52.740Z,32.07348
2023-02-14T06:34:53.648Z,31.85211
2023-02-14T06:39:54.560Z,31.95096
2023-02-14T06:44:55.479Z,31.96376
2023-02-14T06:49:56.500Z,31.84613
2023-02-14T06:54:57.410Z,31.74653
2023-02-14T06:59:58.321Z,31.70542
2023-02-14T07:04:59.231Z,31.75112
2023-02-14T07:10:00.248Z,31.77479
2023-02-14T07:15:01.180Z,31.78577
2023-02-14T07:20:02.132Z,31.78006
2023-02-14T07:25:03.033Z,31.7871
2023-02-14T07:30:04.088Z,31.79766
2023-02-14T07:35:05.126Z,31.77254
2023-02-14T07:40:08.773Z,31.64139
2023-02-14T07:45:21.550Z,31.57015
2023-02-14T07:50:23.363Z,31.4355
2023-02-14T07:55:24.288Z,31.42341
2023-02-14T08:00:25.260Z,31.29305
2023-02-14T08:05:26.280Z,31.2145
2023-02-14T08:10:27.387Z,31.12359
2023-02-14T08:15:28.324Z,31.12434
2023-02-14T08:20:29.245Z,31.11327
2023-02-14T08:25:30.183Z,31.02286
2023-02-14T08:30:31.530Z,30.92905
2023-02-14T08:35:32.913Z,30.8272
2023-02-14T08:40:33.895Z,30.88496
2023-02-14T08:45:34.824Z,30.87756
2023-02-14T08:50:35.792Z,30.75849
2023-02-14T08:55:36.703Z,30.56796
2023-02-14T09:00:37.686Z,30.49527
2023-02-14T09:05:38.637Z,30.46535
2023-02-14T09:10:39.638Z,30.3286
2023-02-14T09:15:40.588Z,30.29249
2023-02-14T09:20:41.569Z,30.20179
2023-02-14T09:25:42.520Z,30.05905
2023-02-14T09:30:43.461Z,29.91277
2023-02-14T09:35:44.348Z,29.71711
2023-02-14T09:40:45.284Z,29.65369
2023-02-14T09:45:46.231Z,29.56452
2023-02-14T09:50:47.164Z,29.36983
2023-02-14T09:55:48.102Z,29.30026
2023-02-14T10:00:49.132Z,29.25882
2023-02-14T10:05:50.068Z,29.23817
2023-02-14T10:10:51.407Z,29.14956
2023-02-14T10:15:52.298Z,29.10397
2023-02-14T10:20:53.179Z,28.86568
2023-02-14T10:25:54.058Z,28.95143
2023-02-14T10:30:55.085Z,28.77035
2023-02-14T10:35:56.113Z,28.73374
2023-02-14T10:40:57.188Z,28.64271
2023-02-14T10:45:58.267Z,28.48519
2023-02-14T10:50:59.631Z,28.42763
2023-02-14T10:56:00.697Z,28.52176
2023-02-14T11:01:02.108Z,28.35639
2023-02-14T11:06:03.211Z,28.28756
2023-02-14T11:11:04.126Z,28.23915
2023-02-14T11:16:05.060Z,28.20989
2023-02-14T11:21:06.013Z,28.24795
2023-02-14T11:26:06.933Z,28.07585
2023-02-14T11:31:07.910Z,28.0937
2023-02-14T11:36:08.915Z,27.98582
2023-02-14T11:41:09.866Z,28.04291
2023-02-14T11:46:10.855Z,27.97739
2023-02-14T11:51:12.067Z,27.90569
2023-02-14T11:56:12.999Z,27.8445
2023-02-14T12:01:13.927Z,27.87057
2023-02-14T12:06:14.975Z,27.92581
2023-02-14T12:11:15.927Z,27.89028
2023-02-14T12:16:16.927Z,27.79652
2023-02-14T12:21:17.858Z,27.82
2023-02-14T12:26:18.835Z,27.73564
2023-02-14T12:31:19.819Z,27.67458
2023-02-14T12:36:20.819Z,27.57821
2023-02-14T12:41:21.758Z,27.63238
2023-02-14T12:46:22.886Z,27.39485
2023-02-14T12:51:23.844Z,27.69874
2023-02-14T12:56:24.766Z,27.70313
2023-02-14T13:01:29.187Z,27.71133
2023-02-14T13:06:37.774Z,27.63323
2023-02-14T13:11:38.754Z,27.61284
2023-02-14T13:16:39.695Z,27.63634
2023-02-14T13:21:40.711Z,27.69649
2023-02-14T13:26:41.635Z,27.65222
2023-02-14T13:31:42.706Z,27.64142
2023-02-14T13:36:43.686Z,27.77371
2023-02-14T13:41:44.617Z,27.76348
2023-02-14T13:46:45.603Z,27.74681
2023-02-14T13:51:46.573Z,27.68312
2023-02-14T13:56:47.641Z,27.80869
2023-02-14T14:01:48.574Z,27.78571
2023-02-14T14:06:49.566Z,27.80912
2023-02-14T14:11:50.531Z,27.94742
2023-02-14T14:16:51.463Z,27.89015
2023-02-14T14:21:52.396Z,27.99153
2023-02-14T14:26:53.366Z,27.9482
2023-02-14T14:31:54.382Z,27.94849
2023-02-14T14:36:55.400Z,27.99543
2023-02-14T14:41:56.301Z,28.31689
2023-02-14T14:46:57.217Z,28.4304
2023-02-14T14:51:58.157Z,28.7068
2023-02-14T14:56:59.085Z,28.62871
2023-02-14T15:02:00.039Z,28.80103
2023-02-14T15:07:00.940Z,28.80534
2023-02-14T15:12:01.845Z,28.81529
2023-02-14T15:17:02.771Z,28.8482
2023-02-14T15:22:03.701Z,28.91682
2023-02-14T15:27:04.704Z,28.85362
2023-02-14T15:32:05.795Z,28.96221
2023-02-14T15:37:07.184Z,29.14366
2023-02-14T15:42:08.179Z,29.2959
2023-02-14T15:47:09.155Z,29.1658
2023-02-14T15:52:10.078Z,29.19241
2023-02-14T15:57:11.003Z,29.09934
2023-02-14T16:02:11.948Z,29.24438
2023-02-14T16:07:12.940Z,29.24069
2023-02-14T16:12:13.876Z,29.38848
2023-02-14T16:17:14.907Z,29.41685
2023-02-14T16:22:15.899Z,29.47734
2023-02-14T16:27:16.820Z,29.59787
2023-02-14T16:32:17.970Z,29.70851
2023-02-14T16:37:18.981Z,29.79576
2023-02-14T16:42:19.944Z,29.78305
2023-02-14T16:47:20.941Z,29.83775
2023-02-14T16:52:23.443Z,29.91916
2023-02-14T16:57:25.896Z,29.9255
2023-02-14T17:02:28.850Z,29.92624
2023-02-14T17:07:29.955Z,30.11472
2023-02-14T17:12:30.883Z,30.09002
2023-02-14T17:17:32.095Z,30.08931
2023-02-14T17:22:33.303Z,30.05355
2023-02-14T17:27:34.506Z,30.14914
2023-02-14T17:32:35.514Z,30.20617
2023-02-14T17:37:36.481Z,30.30243
2023-02-14T17:42:37.361Z,30.33572
2023-02-14T17:47:38.293Z,30.34849
2023-02-14T17:52:39.532Z,30.41488
2023-02-14T17:57:40.543Z,30.48306
2023-02-14T18:02:41.784Z,30.54649
2023-02-14T18:07:42.729Z,30.49856
2023-02-14T18:12:43.675Z,30.45211
2023-02-14T18:17:44.586Z,30.59193
2023-02-14T18:22:45.528Z,30.60993
2023-02-14T18:27:46.464Z,30.62906
2023-02-14T18:32:47.369Z,30.7303
2023-02-14T18:37:48.581Z,30.73632
2023-02-14T18:42:49.839Z,30.87432
2023-02-14T18:47:50.763Z,31.04994
2023-02-14T18:52:51.698Z,31.02034
2023-02-14T18:57:52.618Z,31.2245
2023-02-14T19:02:53.528Z,31.15453
2023-02-14T19:07:54.478Z,31.26628
2023-02-14T19:12:55.458Z,31.4489
2023-02-14T19:17:56.399Z,31.52526
2023-02-14T19:22:57.327Z,31.51726
2023-02-14T19:27:58.234Z,31.49959
2023-02-14T19:32:59.169Z,31.58232
2023-02-14T19:38:00.126Z,31.55337
2023-02-14T19:43:01.076Z,31.66948
2023-02-14T19:48:02.124Z,31.6091
2023-02-14T19:53:03.333Z,31.57481
2023-02-14T19:58:04.290Z,31.72817
2023-02-14T20:03:05.222Z,31.72762
2023-02-14T20:08:06.135Z,31.79806
2023-02-14T20:13:07.048Z,31.79248
2023-02-14T20:18:07.925Z,31.84504
2023-02-14T20:23:08.860Z,31.87504
2023-02-14T20:28:09.796Z,31.91646
2023-02-14T20:33:10.874Z,31.94037
2023-02-14T20:38:11.861Z,31.90944
2023-02-14T20:43:12.793Z,31.90802
2023-02-14T20:48:13.784Z,31.87351
2023-02-14T20:53:14.718Z,31.91367
2023-02-14T20:58:15.657Z,31.91884
2023-02-14T21:03:16.615Z,31.91459
2023-02-14T21:08:17.568Z,31.93159
2023-02-14T21:13:18.513Z,31.92402
2023-02-14T21:18:19.482Z,31.85428
2023-02-14T21:23:20.392Z,31.90969
2023-02-14T21:28:21.259Z,31.95196
2023-02-14T21:33:22.157Z,32.11604
2023-02-14T21:38:23.108Z,32.0999
2023-02-14T21:43:24.012Z,32.22823
2023-02-14T21:48:24.917Z,32.31097
2023-02-14T21:53:25.833Z,32.32978
2023-02-14T21:58:26.722Z,32.30682
2023-02-14T22:03:27.603Z,32.42493
2023-02-14T22:08:28.484Z,32.57214
2023-02-14T22:13:29.426Z,32.57153
2023-02-14T22:18:30.396Z,32.62389
2023-02-14T22:23:31.328Z,32.61593
2023-02-14T22:28:32.466Z,32.52799
2023-02-14T22:33:33.668Z,32.49767
2023-02-14T22:38:34.755Z,32.37139
2023-02-14T22:43:35.686Z,32.55921
2023-02-14T22:48:36.608Z,32.62947
2023-02-14T22:53:37.959Z,32.61703
2023-02-14T22:58:38.888Z,32.61724
2023-02-14T23:03:39.860Z,32.58383
2023-02-14T23:08:40.801Z,32.79109
2023-02-14T23:13:41.722Z,32.94985
2023-02-14T23:18:42.742Z,33.03353
2023-02-14T23:23:43.672Z,33.23866
2023-02-14T23:28:44.590Z,33.32619
2023-02-14T23:33:45.633Z,33.44313
2023-02-14T23:38:46.588Z,33.37917
2023-02-14T23:43:47.502Z,33.33971
2023-02-14T23:48:48.424Z,33.35891
2023-02-14T23:53:49.370Z,33.33736
2023-02-14T23:58:50.283Z,33.35638
